Weather at Price's Dairy Airport [CLOSED]

Public forecast

Using degrees Fahrenheit for public forecast. Weather courtesy of forecast.io.

Closest aviation weather report (METAR) to Price's Dairy Airport

Closest report is Albuquerque International Sunport, 4.5 nm (8.3 km) NE.

2024/02/25 11:52 (retrieved 35 minutes ago)

KABQ 251152Z 14007KT 10SM FEW130 SCT220 03/M09 A3018 RMK AO2 SLP186 T00331089 10094 20017 53006

Closest aviation forecast (TAF) to Price's Dairy Airport

Closest forecast is Albuquerque International Sunport, 4.5 nm (8.3 km) NE.

2024/02/25 12:22 (retrieved 5 minutes ago)

TAF KABQ 251120Z 2512/2612 14006KT P6SM SCT180 FM251800 24008KT P6SM BKN150 FM252000 28010G20KT P6SM FEW080 BKN150 FM260100 29008KT P6SM BKN150 FM260800 14006KT P6SM BKN180